createdAt,value
2023-03-08T00:00:39.223Z,19.57
2023-03-08T00:03:07.676Z,17.57
2023-03-08T00:05:36.079Z,22.40
2023-03-08T00:08:04.957Z,24.13
2023-03-08T00:10:34.845Z,28.53
2023-03-08T00:13:03.267Z,28.40
2023-03-08T00:15:31.650Z,35.23
2023-03-08T00:18:00.347Z,31.90
2023-03-08T00:20:28.739Z,40.00
2023-03-08T00:22:57.144Z,37.77
2023-03-08T00:25:25.571Z,32.50
2023-03-08T00:27:55.481Z,34.70
2023-03-08T00:30:23.912Z,33.10
2023-03-08T00:32:52.329Z,33.43
2023-03-08T00:35:20.958Z,40.93
2023-03-08T00:37:49.363Z,38.37
2023-03-08T00:40:17.927Z,38.57
2023-03-08T00:42:46.312Z,32.10
2023-03-08T00:45:16.345Z,34.67
2023-03-08T00:47:44.777Z,34.77
2023-03-08T00:50:13.371Z,33.40
2023-03-08T00:52:41.769Z,34.50
2023-03-08T00:55:10.586Z,36.47
2023-03-08T00:57:38.989Z,40.57
2023-03-08T01:00:10.944Z,38.40
2023-03-08T01:02:41.339Z,39.87
2023-03-08T01:05:10.334Z,37.43
2023-03-08T01:07:38.844Z,39.47
2023-03-08T01:10:07.599Z,36.03
2023-03-08T01:12:36.615Z,42.20
2023-03-08T01:15:06.005Z,39.03
2023-03-08T01:17:34.498Z,37.77
2023-03-08T01:20:05.080Z,37.70
2023-03-08T01:22:33.802Z,38.37
2023-03-08T01:25:02.191Z,39.40
2023-03-08T01:27:30.824Z,40.83
2023-03-08T01:29:59.243Z,36.47
2023-03-08T01:32:27.752Z,40.53
2023-03-08T01:34:56.341Z,38.63
2023-03-08T01:37:26.132Z,39.80
2023-03-08T01:39:54.523Z,42.90
2023-03-08T01:42:22.912Z,42.33
2023-03-08T01:44:52.380Z,41.63
2023-03-08T01:47:22.311Z,35.03
2023-03-08T01:49:51.218Z,35.80
2023-03-08T01:52:21.699Z,37.83
2023-03-08T01:54:53.324Z,38.73
2023-03-08T01:57:22.929Z,37.70
2023-03-08T01:59:51.898Z,39.47
2023-03-08T02:02:20.812Z,38.43
2023-03-08T02:04:49.240Z,47.20
2023-03-08T02:07:17.659Z,40.03
2023-03-08T02:09:46.558Z,37.67
2023-03-08T02:12:16.503Z,36.43
2023-03-08T02:14:45.218Z,35.87
2023-03-08T02:17:13.978Z,36.73
2023-03-08T02:19:47.211Z,37.40
2023-03-08T02:22:16.655Z,40.43
2023-03-08T02:24:46.460Z,36.97
2023-03-08T02:27:16.932Z,38.33
2023-03-08T02:29:45.727Z,38.03
2023-03-08T02:32:14.252Z,40.63
2023-03-08T02:34:42.771Z,36.60
2023-03-08T02:37:11.233Z,39.03
2023-03-08T02:39:39.620Z,38.37
2023-03-08T02:42:09.767Z,35.97
2023-03-08T02:44:38.171Z,35.70
2023-03-08T02:47:06.688Z,40.73
2023-03-08T02:49:35.108Z,37.70
2023-03-08T02:52:03.515Z,37.63
2023-03-08T02:54:31.988Z,37.40
2023-03-08T02:57:00.426Z,35.47
2023-03-08T02:59:30.939Z,38.23
2023-03-08T03:01:59.759Z,35.83
2023-03-08T03:04:30.976Z,38.77
2023-03-08T03:06:59.487Z,39.17
2023-03-08T03:09:28.352Z,33.87
2023-03-08T03:11:56.972Z,34.93
2023-03-08T03:14:25.376Z,32.63
2023-03-08T03:16:55.185Z,34.03
2023-03-08T03:19:23.625Z,36.23
2023-03-08T03:21:52.167Z,32.77
2023-03-08T03:24:20.589Z,29.03
2023-03-08T03:26:51.513Z,31.43
2023-03-08T03:29:20.002Z,28.17
2023-03-08T03:31:48.689Z,27.40
2023-03-08T03:34:18.808Z,28.83
2023-03-08T03:36:47.214Z,26.40
2023-03-08T03:39:15.604Z,24.90
2023-03-08T03:41:44.040Z,24.73
2023-03-08T03:44:12.468Z,25.67
2023-03-08T03:46:40.884Z,25.53
2023-03-08T03:49:09.312Z,23.13
2023-03-08T03:51:39.137Z,22.60
2023-03-08T03:54:07.595Z,20.73
2023-03-08T03:56:36.005Z,19.93
2023-03-08T03:59:04.421Z,22.33
2023-03-08T04:01:33.423Z,18.67
2023-03-08T04:04:02.023Z,17.43
2023-03-08T04:06:31.829Z,22.57
2023-03-08T04:09:02.499Z,19.77
2023-03-08T04:11:33.743Z,19.83
2023-03-08T04:14:02.320Z,20.90
2023-03-08T04:16:31.834Z,21.20
2023-03-08T04:19:01.156Z,17.57
2023-03-08T04:21:30.232Z,22.20
2023-03-08T04:24:00.587Z,17.87
2023-03-08T04:26:31.219Z,19.20
2023-03-08T04:29:00.127Z,23.33
2023-03-08T04:31:29.454Z,24.60
2023-03-08T04:33:58.425Z,22.87
2023-03-08T04:36:26.856Z,25.50
2023-03-08T04:38:55.265Z,26.87
2023-03-08T04:41:23.784Z,26.57
2023-03-08T04:43:54.203Z,29.17
2023-03-08T04:46:24.257Z,30.20
2023-03-08T04:48:54.160Z,31.73
2023-03-08T04:51:23.649Z,33.17
2023-03-08T04:53:52.085Z,33.67
2023-03-08T04:56:20.560Z,34.73
2023-03-08T04:58:49.390Z,34.17
2023-03-08T05:01:20.338Z,34.77
2023-03-08T05:03:49.724Z,36.10
2023-03-08T05:06:18.688Z,37.63
2023-03-08T05:08:47.480Z,39.77
2023-03-08T05:11:18.970Z,41.40
2023-03-08T05:13:47.412Z,39.87
2023-03-08T05:16:16.326Z,44.53
2023-03-08T05:18:46.172Z,40.40
2023-03-08T05:21:15.939Z,39.63
2023-03-08T05:23:44.406Z,41.10
2023-03-08T05:26:14.001Z,40.97
2023-03-08T05:28:42.815Z,39.03
2023-03-08T05:31:12.952Z,41.07
2023-03-08T05:33:41.699Z,42.30
2023-03-08T05:36:12.619Z,39.17
2023-03-08T05:38:41.053Z,45.00
2023-03-08T05:41:10.719Z,39.17
2023-03-08T05:43:39.112Z,42.20
2023-03-08T05:46:08.888Z,40.23
2023-03-08T05:48:37.566Z,41.33
2023-03-08T05:51:07.320Z,41.17
2023-03-08T05:53:37.448Z,42.27
2023-03-08T05:56:10.006Z,40.40
2023-03-08T05:58:38.649Z,40.23
2023-03-08T06:01:10.850Z,44.40
2023-03-08T06:03:39.308Z,40.97
2023-03-08T06:06:07.977Z,44.20
2023-03-08T06:08:37.798Z,41.83
2023-03-08T06:11:06.436Z,38.47
2023-03-08T06:13:34.848Z,40.57
2023-03-08T06:16:03.542Z,40.83
2023-03-08T06:18:32.018Z,38.37
2023-03-08T06:21:00.998Z,39.93
2023-03-08T06:23:29.532Z,40.57
2023-03-08T06:26:00.003Z,36.70
2023-03-08T06:28:29.624Z,36.97
2023-03-08T06:30:58.292Z,36.47
2023-03-08T06:33:28.491Z,37.23
2023-03-08T06:35:58.222Z,35.87
2023-03-08T06:38:29.253Z,38.20
2023-03-08T06:40:59.651Z,35.40
2023-03-08T06:43:28.064Z,37.17
2023-03-08T06:45:56.685Z,35.63
2023-03-08T06:48:25.482Z,41.63
2023-03-08T06:50:53.906Z,32.47
2023-03-08T06:53:22.301Z,34.23
2023-03-08T06:55:50.744Z,36.53
2023-03-08T06:58:20.553Z,39.40
2023-03-08T07:00:49.481Z,33.97
2023-03-08T07:03:17.971Z,32.97
2023-03-08T07:05:46.374Z,38.83
2023-03-08T07:08:14.881Z,40.13
2023-03-08T07:10:43.341Z,51.17
2023-03-08T07:13:11.699Z,52.40
2023-03-08T07:15:42.459Z,51.40
2023-03-08T07:18:10.939Z,51.00
2023-03-08T07:20:39.305Z,50.97
2023-03-08T07:23:07.683Z,49.40
2023-03-08T07:25:36.109Z,52.47
2023-03-08T07:28:04.572Z,58.57
2023-03-08T07:30:33.092Z,39.20
2023-03-08T07:33:02.954Z,28.03
2023-03-08T07:35:31.613Z,48.50
2023-03-08T07:38:00.020Z,42.77
2023-03-08T07:40:28.484Z,48.67
2023-03-08T07:42:57.578Z,43.37
2023-03-08T07:45:25.984Z,39.17
2023-03-08T07:47:54.483Z,32.30
2023-03-08T07:50:24.288Z,26.03
2023-03-08T07:52:52.673Z,34.27
2023-03-08T07:55:21.561Z,32.73
2023-03-08T07:57:50.048Z,32.27
2023-03-08T08:00:19.005Z,28.00
2023-03-08T08:02:48.180Z,33.10
2023-03-08T08:05:16.832Z,24.85
2023-03-08T08:07:48.972Z,19.77
2023-03-08T08:10:17.770Z,24.10
2023-03-08T08:12:46.200Z,21.53
2023-03-08T08:15:14.639Z,24.83
2023-03-08T08:17:43.071Z,20.80
2023-03-08T08:20:12.200Z,17.80
2023-03-08T08:22:40.587Z,15.30
2023-03-08T08:25:11.493Z,17.97
2023-03-08T08:27:40.261Z,18.73
2023-03-08T08:30:09.473Z,17.80
2023-03-08T08:32:38.330Z,22.07
2023-03-08T08:35:07.129Z,16.37
2023-03-08T08:37:35.840Z,16.93
2023-03-08T08:40:08.006Z,12.90
2023-03-08T08:42:37.871Z,13.73
2023-03-08T08:45:06.602Z,17.70
2023-03-08T08:47:35.140Z,19.00
2023-03-08T08:50:03.640Z,13.83
2023-03-08T08:52:32.064Z,15.30
2023-03-08T08:55:00.568Z,16.30
2023-03-08T08:57:29.086Z,15.20
2023-03-08T08:59:58.964Z,13.77
2023-03-08T09:02:27.446Z,17.70
2023-03-08T09:04:55.973Z,12.90
2023-03-08T09:07:24.377Z,14.20
2023-03-08T09:09:52.891Z,10.80
2023-03-08T09:12:22.049Z,12.27
2023-03-08T09:14:50.467Z,13.63
2023-03-08T09:17:20.251Z,14.40
2023-03-08T09:19:48.679Z,13.23
2023-03-08T09:22:17.061Z,15.00
2023-03-08T09:24:45.845Z,12.33
2023-03-08T09:27:14.304Z,18.43
2023-03-08T09:29:42.792Z,13.07
2023-03-08T09:32:11.278Z,10.80
2023-03-08T09:34:41.135Z,14.50
2023-03-08T09:37:09.548Z,12.27
2023-03-08T09:39:38.599Z,15.07
2023-03-08T09:42:07.590Z,12.53
2023-03-08T09:44:50.803Z,12.10
2023-03-08T09:47:24.409Z,13.10
2023-03-08T09:49:56.276Z,13.70
2023-03-08T09:52:29.819Z,12.03
2023-03-08T09:55:00.152Z,13.27
2023-03-08T09:57:31.318Z,13.23
2023-03-08T10:00:00.570Z,12.70
2023-03-08T10:02:34.966Z,10.13
2023-03-08T10:05:13.719Z,21.00
2023-03-08T10:07:54.987Z,14.20
2023-03-08T10:10:36.968Z,17.03
2023-03-08T10:13:17.552Z,18.77
2023-03-08T10:15:49.634Z,25.60
2023-03-08T10:18:20.088Z,24.03
2023-03-08T10:20:50.140Z,17.87
2023-03-08T10:23:19.601Z,24.13
2023-03-08T10:25:48.634Z,37.57
2023-03-08T10:28:18.330Z,22.20
2023-03-08T10:30:48.494Z,17.17
2023-03-08T10:33:19.333Z,13.30
2023-03-08T10:36:00.243Z,30.87
2023-03-08T10:38:30.208Z,27.37
2023-03-08T10:41:02.894Z,18.70
2023-03-08T10:43:32.543Z,17.20
2023-03-08T10:46:02.036Z,32.20
2023-03-08T10:48:30.596Z,26.13
2023-03-08T10:51:04.265Z,25.80
2023-03-08T10:53:33.153Z,16.90
2023-03-08T10:56:02.415Z,35.80
2023-03-08T10:58:33.176Z,33.57
2023-03-08T11:01:02.445Z,24.97
2023-03-08T11:03:31.303Z,20.07
2023-03-08T11:06:00.947Z,20.90
2023-03-08T11:08:31.879Z,39.17
2023-03-08T11:11:04.243Z,36.20
2023-03-08T11:13:33.507Z,22.23
2023-03-08T11:16:07.463Z,26.47
2023-03-08T11:18:41.591Z,39.70
2023-03-08T11:21:15.696Z,25.93
2023-03-08T11:23:48.907Z,18.40
2023-03-08T11:26:20.735Z,28.83
2023-03-08T11:28:55.310Z,49.40
2023-03-08T11:31:26.722Z,22.50
2023-03-08T11:34:12.966Z,16.10
2023-03-08T11:36:45.967Z,40.97
2023-03-08T11:39:20.333Z,32.20
2023-03-08T11:41:53.923Z,16.93
2023-03-08T11:44:38.471Z,33.80
2023-03-08T11:47:25.595Z,25.00
2023-03-08T11:50:06.229Z,18.93
2023-03-08T11:52:39.282Z,27.60
2023-03-08T11:55:31.097Z,34.83
2023-03-08T11:58:02.769Z,19.70
2023-03-08T12:00:34.025Z,14.63
2023-03-08T12:03:06.444Z,34.63
2023-03-08T12:05:36.918Z,31.83
2023-03-08T12:08:07.398Z,22.47
2023-03-08T12:10:42.734Z,35.30
2023-03-08T12:13:16.705Z,38.17
2023-03-08T12:15:48.628Z,25.27
2023-03-08T12:18:18.236Z,18.43
2023-03-08T12:20:46.888Z,43.33
2023-03-08T12:23:21.712Z,40.17
2023-03-08T12:25:53.239Z,27.20
2023-03-08T12:28:24.444Z,21.03
2023-03-08T12:30:58.734Z,34.43
2023-03-08T12:33:28.959Z,44.80
2023-03-08T12:35:58.726Z,28.13
2023-03-08T12:38:32.015Z,18.70
2023-03-08T12:41:01.856Z,35.50
2023-03-08T12:43:31.278Z,33.93
2023-03-08T12:46:04.674Z,21.87
2023-03-08T12:48:35.583Z,19.00
2023-03-08T12:51:05.857Z,31.10
2023-03-08T12:53:36.410Z,24.67
2023-03-08T12:56:24.615Z,14.13
2023-03-08T12:58:54.711Z,25.70
2023-03-08T13:01:31.962Z,27.87
2023-03-08T13:04:00.615Z,20.67
2023-03-08T13:06:44.096Z,13.83
2023-03-08T13:09:17.242Z,28.77
2023-03-08T13:11:49.988Z,24.57
2023-03-08T13:14:26.248Z,16.53
2023-03-08T13:16:54.816Z,25.97
2023-03-08T13:19:27.036Z,28.57
2023-03-08T13:21:59.840Z,20.43
2023-03-08T13:24:34.271Z,12.00
2023-03-08T13:27:10.842Z,26.63
2023-03-08T13:29:39.537Z,24.33
2023-03-08T13:32:10.003Z,16.07
2023-03-08T13:34:38.472Z,16.67
2023-03-08T13:37:06.905Z,29.53
2023-03-08T13:39:35.349Z,15.10
2023-03-08T13:42:08.989Z,19.47
2023-03-08T13:44:37.424Z,25.70
2023-03-08T13:47:15.348Z,15.80
2023-03-08T13:49:45.645Z,24.37
2023-03-08T13:52:17.743Z,34.70
2023-03-08T13:54:47.484Z,25.27
2023-03-08T13:57:22.802Z,24.40
2023-03-08T13:59:51.642Z,28.50
2023-03-08T14:02:21.528Z,25.23
2023-03-08T14:04:50.239Z,17.67
2023-03-08T14:07:22.938Z,26.60
2023-03-08T14:09:51.650Z,36.23
2023-03-08T14:12:22.239Z,23.77
2023-03-08T14:14:53.099Z,21.93
2023-03-08T14:17:22.909Z,28.83
2023-03-08T14:19:55.233Z,35.63
2023-03-08T14:22:38.109Z,43.10
2023-03-08T14:25:08.132Z,42.33
2023-03-08T14:27:42.557Z,36.07
2023-03-08T14:30:14.259Z,36.70
2023-03-08T14:32:43.675Z,39.20
2023-03-08T14:35:18.859Z,36.80
2023-03-08T14:37:48.082Z,32.83
2023-03-08T14:40:23.825Z,33.27
2023-03-08T14:42:55.774Z,36.67
2023-03-08T14:45:25.299Z,34.27
2023-03-08T14:47:55.578Z,37.97
2023-03-08T14:50:25.380Z,37.30
2023-03-08T14:52:54.676Z,36.97
2023-03-08T14:55:24.383Z,35.13
2023-03-08T14:57:57.916Z,32.70
2023-03-08T15:00:29.219Z,35.70
2023-03-08T15:02:58.241Z,42.73
2023-03-08T15:05:29.604Z,43.80
2023-03-08T15:07:59.368Z,27.73
2023-03-08T15:10:29.367Z,26.03
2023-03-08T15:12:59.345Z,39.07
2023-03-08T15:15:28.058Z,47.50
2023-03-08T15:17:56.645Z,29.43
2023-03-08T15:20:25.197Z,24.43
2023-03-08T15:22:55.290Z,36.10
2023-03-08T15:25:25.680Z,34.57
2023-03-08T15:27:54.164Z,20.70
2023-03-08T15:30:25.415Z,12.47
2023-03-08T15:32:53.848Z,28.23
2023-03-08T15:35:22.305Z,47.07
2023-03-08T15:37:50.936Z,37.03
2023-03-08T15:40:20.249Z,23.40
2023-03-08T15:42:48.708Z,46.67
2023-03-08T15:45:17.448Z,37.57
2023-03-08T15:47:56.846Z,28.37
2023-03-08T15:50:25.713Z,41.47
2023-03-08T15:52:54.569Z,47.37
2023-03-08T15:55:23.731Z,30.30
2023-03-08T15:57:52.295Z,39.50
2023-03-08T16:00:22.149Z,49.97
2023-03-08T16:02:53.778Z,29.70
2023-03-08T16:05:24.092Z,42.03
2023-03-08T16:07:55.016Z,48.43
2023-03-08T16:10:23.757Z,39.97
2023-03-08T16:12:52.166Z,45.43
2023-03-08T16:15:20.900Z,28.27
2023-03-08T16:17:49.301Z,35.83
2023-03-08T16:20:20.634Z,40.43
2023-03-08T16:22:50.114Z,24.93
2023-03-08T16:25:18.718Z,37.07
2023-03-08T16:27:47.242Z,42.77
2023-03-08T16:30:15.890Z,28.23
2023-03-08T16:32:44.342Z,36.40
2023-03-08T16:35:13.164Z,42.03
2023-03-08T16:37:42.952Z,26.13
2023-03-08T16:40:11.934Z,37.20
2023-03-08T16:42:40.357Z,40.10
2023-03-08T16:45:09.270Z,23.20
2023-03-08T16:47:37.663Z,36.00
2023-03-08T16:50:06.421Z,37.33
2023-03-08T16:52:34.887Z,25.73
2023-03-08T16:55:05.199Z,36.27
2023-03-08T16:57:33.592Z,34.60
2023-03-08T17:00:02.099Z,24.93
2023-03-08T17:02:30.538Z,34.47
2023-03-08T17:04:58.931Z,25.63
2023-03-08T17:07:27.384Z,31.07
2023-03-08T17:09:56.247Z,29.47
2023-03-08T17:12:26.035Z,26.17
2023-03-08T17:14:54.453Z,26.87
2023-03-08T17:17:22.834Z,32.63
2023-03-08T17:19:52.734Z,22.97
2023-03-08T17:22:21.351Z,27.30
2023-03-08T17:24:49.761Z,24.80
2023-03-08T17:27:18.232Z,19.53
2023-03-08T17:29:48.175Z,25.77
2023-03-08T17:32:16.579Z,18.67
2023-03-08T17:34:44.993Z,24.97
2023-03-08T17:37:13.434Z,39.77
2023-03-08T17:39:41.818Z,43.63
2023-03-08T17:42:10.252Z,46.23
2023-03-08T17:44:38.659Z,46.80
2023-03-08T17:47:08.980Z,40.33
2023-03-08T17:49:39.183Z,37.23
2023-03-08T17:52:08.295Z,26.67
2023-03-08T17:54:36.676Z,32.83
2023-03-08T17:57:05.189Z,19.97
2023-03-08T17:59:33.592Z,17.37
2023-03-08T18:02:02.082Z,14.93
2023-03-08T18:04:31.962Z,11.47
2023-03-08T18:07:00.430Z,10.33
2023-03-08T18:09:29.829Z,6.83
2023-03-08T18:11:58.263Z,8.97
2023-03-08T18:14:39.239Z,8.23
2023-03-08T18:17:08.765Z,12.43
2023-03-08T18:19:38.597Z,8.77
2023-03-08T18:22:07.071Z,6.40
2023-03-08T18:24:35.488Z,10.47
2023-03-08T18:27:05.463Z,7.20
2023-03-08T18:29:34.310Z,10.97
2023-03-08T18:32:02.990Z,8.27
2023-03-08T18:34:31.868Z,9.80
2023-03-08T18:37:02.018Z,11.20
2023-03-08T18:39:30.418Z,7.57
2023-03-08T18:42:00.939Z,9.70
2023-03-08T18:44:29.609Z,7.53
2023-03-08T18:46:58.055Z,7.47
2023-03-08T18:49:26.712Z,10.07
2023-03-08T18:51:55.097Z,7.03
2023-03-08T18:54:25.266Z,10.77
2023-03-08T18:56:55.737Z,8.07
2023-03-08T18:59:24.878Z,8.00
2023-03-08T19:01:54.102Z,9.37
2023-03-08T19:04:22.570Z,7.23
2023-03-08T19:06:50.985Z,8.13
2023-03-08T19:09:21.711Z,8.53
2023-03-08T19:11:51.541Z,8.63
2023-03-08T19:14:19.905Z,6.90
2023-03-08T19:16:48.358Z,11.63
2023-03-08T19:19:18.180Z,7.80
2023-03-08T19:21:48.426Z,8.43
2023-03-08T19:24:17.775Z,7.73
2023-03-08T19:26:50.272Z,9.07
2023-03-08T19:29:21.712Z,9.47
2023-03-08T19:31:52.025Z,8.83
2023-03-08T19:34:22.279Z,8.97
2023-03-08T19:36:51.198Z,8.50
2023-03-08T19:39:21.590Z,8.73
2023-03-08T19:41:50.840Z,9.43
2023-03-08T19:44:20.701Z,7.80
2023-03-08T19:46:49.157Z,10.47
2023-03-08T19:49:19.190Z,9.13
2023-03-08T19:51:48.760Z,8.83
2023-03-08T19:54:17.268Z,7.30
2023-03-08T19:56:45.657Z,8.40
2023-03-08T19:59:14.168Z,7.83
2023-03-08T20:01:44.203Z,10.30
2023-03-08T20:04:12.933Z,8.77
2023-03-08T20:06:45.087Z,10.33
2023-03-08T20:09:18.250Z,8.53
2023-03-08T20:11:46.734Z,7.17
2023-03-08T20:14:15.150Z,8.53
2023-03-08T20:16:45.029Z,11.83
2023-03-08T20:19:13.487Z,7.37
2023-03-08T20:21:42.061Z,9.70
2023-03-08T20:24:10.754Z,8.00
2023-03-08T20:26:41.900Z,8.40
2023-03-08T20:29:10.578Z,11.03
2023-03-08T20:31:39.042Z,9.77
2023-03-08T20:34:08.838Z,8.73
2023-03-08T20:36:37.747Z,11.57
2023-03-08T20:39:06.274Z,8.70
2023-03-08T20:41:34.668Z,9.70
2023-03-08T20:44:03.068Z,8.43
2023-03-08T20:46:33.610Z,8.93
2023-03-08T20:49:02.662Z,10.30
2023-03-08T20:51:32.525Z,9.93
2023-03-08T20:54:00.961Z,10.13
2023-03-08T20:56:29.348Z,9.57
2023-03-08T20:59:00.505Z,11.27
2023-03-08T21:01:30.174Z,14.13
2023-03-08T21:03:58.656Z,13.10
2023-03-08T21:06:28.319Z,12.70
2023-03-08T21:08:58.403Z,11.80
2023-03-08T21:11:26.837Z,12.87
2023-03-08T21:13:56.443Z,12.87
2023-03-08T21:16:26.205Z,11.70
2023-03-08T21:18:55.427Z,13.87
2023-03-08T21:21:24.868Z,13.00
2023-03-08T21:23:54.468Z,13.60
2023-03-08T21:26:25.772Z,13.83
2023-03-08T21:28:54.161Z,12.47
2023-03-08T21:31:23.471Z,16.93
2023-03-08T21:33:53.511Z,14.27
2023-03-08T21:36:22.012Z,15.90
2023-03-08T21:38:53.241Z,14.23
2023-03-08T21:41:22.283Z,14.83
2023-03-08T21:43:52.381Z,14.47
2023-03-08T21:46:21.294Z,16.30
2023-03-08T21:48:49.728Z,16.57
2023-03-08T21:51:18.341Z,17.67
2023-03-08T21:53:46.820Z,16.97
2023-03-08T21:56:16.113Z,18.20
2023-03-08T21:58:45.000Z,16.80
2023-03-08T22:01:24.783Z,17.37
2023-03-08T22:03:54.338Z,17.23
2023-03-08T22:06:23.174Z,16.40
2023-03-08T22:08:51.873Z,16.20
2023-03-08T22:11:20.722Z,15.97
2023-03-08T22:13:51.197Z,14.63
2023-03-08T22:16:19.815Z,17.27
2023-03-08T22:18:49.628Z,17.10
2023-03-08T22:21:18.028Z,19.80
2023-03-08T22:23:46.464Z,18.87
2023-03-08T22:26:15.075Z,18.83
2023-03-08T22:28:43.474Z,19.77
2023-03-08T22:31:13.171Z,17.80
2023-03-08T22:33:41.919Z,25.33
2023-03-08T22:36:13.394Z,21.60
2023-03-08T22:38:42.170Z,23.10
2023-03-08T22:41:12.588Z,21.27
2023-03-08T22:43:41.091Z,20.37
2023-03-08T22:46:10.103Z,20.23
2023-03-08T22:48:38.627Z,21.43
2023-03-08T22:51:11.133Z,22.07
2023-03-08T22:53:41.786Z,22.53
2023-03-08T22:56:18.304Z,18.83
2023-03-08T22:58:46.796Z,20.07
2023-03-08T23:01:15.584Z,23.93
2023-03-08T23:03:44.012Z,22.73
2023-03-08T23:06:12.460Z,22.13
2023-03-08T23:08:42.225Z,19.27
2023-03-08T23:11:11.460Z,19.10
2023-03-08T23:13:41.176Z,19.50
2023-03-08T23:16:10.087Z,20.10
2023-03-08T23:18:38.518Z,22.53
2023-03-08T23:21:07.486Z,21.00
2023-03-08T23:23:36.201Z,18.27
2023-03-08T23:26:06.475Z,18.40
2023-03-08T23:28:35.838Z,17.40
2023-03-08T23:31:04.481Z,19.60
2023-03-08T23:33:32.917Z,21.50
2023-03-08T23:36:01.351Z,18.13
2023-03-08T23:38:29.877Z,15.93
2023-03-08T23:40:58.599Z,18.43
2023-03-08T23:43:28.439Z,17.33
2023-03-08T23:45:56.857Z,19.30
2023-03-08T23:48:25.319Z,18.67
2023-03-08T23:50:53.720Z,18.67
2023-03-08T23:53:22.095Z,19.30
2023-03-08T23:55:50.493Z,20.17
2023-03-08T23:58:18.908Z,17.70
